createdAt,value
2022-08-10T00:01:54.009Z,99.90
2022-08-10T00:04:24.242Z,99.90
2022-08-10T00:06:55.220Z,99.90
2022-08-10T00:12:19.356Z,99.90
2022-08-10T00:43:07.528Z,99.90
2022-08-10T00:45:36.418Z,99.90
2022-08-10T01:08:26.613Z,99.90
2022-08-10T01:12:38.065Z,99.90
2022-08-10T01:14:50.399Z,99.90
2022-08-10T01:17:49.697Z,99.90
2022-08-10T01:20:50.243Z,99.90
2022-08-10T01:30:08.913Z,99.90
2022-08-10T01:33:13.412Z,99.90
2022-08-10T01:36:10.033Z,99.90
2022-08-10T01:38:46.958Z,99.90
2022-08-10T01:41:40.884Z,99.90
2022-08-10T01:44:36.579Z,99.90
2022-08-10T01:50:18.309Z,99.90
2022-08-10T01:52:48.872Z,99.90
2022-08-10T01:55:17.985Z,99.90
2022-08-10T01:57:47.298Z,99.90
2022-08-10T02:02:46.875Z,99.90
2022-08-10T02:05:16.559Z,99.90
2022-08-10T02:07:47.002Z,99.90
2022-08-10T02:10:19.160Z,99.90
2022-08-10T02:15:19.514Z,99.90
2022-08-10T02:18:00.282Z,99.90
2022-08-10T02:20:51.454Z,99.90
2022-08-10T02:23:27.781Z,99.90
2022-08-10T02:28:32.463Z,99.90
2022-08-10T02:31:13.140Z,99.90
2022-08-10T02:33:57.691Z,99.90
2022-08-10T02:36:33.933Z,99.90
2022-08-10T02:39:05.987Z,99.90
2022-08-10T02:45:29.406Z,99.90
2022-08-10T02:48:19.686Z,99.90
2022-08-10T02:50:59.589Z,99.90
2022-08-10T02:53:54.531Z,99.90
2022-08-10T02:56:43.502Z,99.90
2022-08-10T02:59:24.797Z,99.90
2022-08-10T03:02:00.281Z,99.90
2022-08-10T03:04:55.063Z,99.90
2022-08-10T03:07:43.536Z,99.90
2022-08-10T03:10:34.095Z,99.90
2022-08-10T03:13:09.724Z,99.90
2022-08-10T03:15:39.173Z,99.90
2022-08-10T03:18:09.152Z,99.90
2022-08-10T03:20:42.037Z,99.90
2022-08-10T03:23:20.820Z,99.90
2022-08-10T03:25:55.217Z,99.90
2022-08-10T03:28:28.077Z,99.90
2022-08-10T03:41:35.779Z,99.90
2022-08-10T03:44:06.501Z,99.90
2022-08-10T03:46:41.104Z,99.90
2022-08-10T03:49:11.371Z,99.90
2022-08-10T03:54:08.993Z,99.90
2022-08-10T03:56:40.608Z,99.90
2022-08-10T03:59:13.465Z,99.90
2022-08-10T04:02:52.387Z,99.90
2022-08-10T04:09:54.664Z,99.90
2022-08-10T04:12:24.723Z,99.90
2022-08-10T04:18:03.876Z,99.90
2022-08-10T04:20:21.005Z,99.90
2022-08-10T04:22:53.181Z,99.90
2022-08-10T04:25:24.214Z,99.90
2022-08-10T04:27:52.884Z,99.90
2022-08-10T04:32:54.125Z,99.90
2022-08-10T04:35:24.150Z,99.90
2022-08-10T04:37:53.665Z,99.90
2022-08-10T04:43:11.695Z,99.90
2022-08-10T04:48:40.957Z,99.90
2022-08-10T04:51:19.238Z,99.90
2022-08-10T04:54:04.905Z,99.90
2022-08-10T04:56:38.235Z,99.90
2022-08-10T04:59:10.265Z,99.90
2022-08-10T05:02:28.836Z,99.90
2022-08-10T05:07:16.709Z,99.90
2022-08-10T05:10:04.799Z,99.90
2022-08-10T05:12:39.174Z,99.90
2022-08-10T05:15:10.779Z,99.90
2022-08-10T05:17:40.169Z,99.90
2022-08-10T05:20:11.651Z,99.90
2022-08-10T05:22:45.471Z,99.90
2022-08-10T05:25:17.740Z,99.90
2022-08-10T05:27:47.473Z,99.90
2022-08-10T05:30:20.256Z,99.90
2022-08-10T05:40:46.807Z,99.90
2022-08-10T05:43:21.413Z,99.90
2022-08-10T05:46:18.183Z,99.90
2022-08-10T05:48:57.441Z,99.90
2022-08-10T05:51:30.117Z,99.90
2022-08-10T05:54:04.711Z,99.90
2022-08-10T06:00:30.815Z,99.90
2022-08-10T06:02:41.652Z,99.90
2022-08-10T06:05:16.258Z,99.90
2022-08-10T06:07:55.213Z,99.90
2022-08-10T06:10:31.097Z,99.90
2022-08-10T06:13:30.004Z,99.90
2022-08-10T06:16:12.247Z,99.90
2022-08-10T06:23:40.299Z,99.90
2022-08-10T06:26:13.410Z,99.90
2022-08-10T06:29:03.381Z,99.90
2022-08-10T06:31:47.487Z,99.90
2022-08-10T06:34:33.254Z,99.90
2022-08-10T06:37:05.772Z,99.90
2022-08-10T06:42:20.792Z,99.90
2022-08-10T06:45:04.677Z,99.90
2022-08-10T06:47:59.171Z,99.90
2022-08-10T06:50:55.958Z,99.90
2022-08-10T06:53:52.313Z,99.90
2022-08-10T06:56:36.861Z,99.90
2022-08-10T06:59:28.353Z,99.90
2022-08-10T07:02:10.755Z,99.90
2022-08-10T07:05:04.026Z,99.90
2022-08-10T07:07:37.522Z,99.90
2022-08-10T07:10:07.337Z,99.90
2022-08-10T07:12:37.328Z,99.90
2022-08-10T07:15:09.243Z,99.90
2022-08-10T07:20:10.623Z,99.90
2022-08-10T07:23:26.910Z,99.90
2022-08-10T07:28:01.887Z,99.90
2022-08-10T07:30:37.492Z,99.90
2022-08-10T07:33:07.949Z,99.90
2022-08-10T07:35:43.471Z,99.90
2022-08-10T07:38:38.786Z,99.90
2022-08-10T07:41:09.101Z,99.90
2022-08-10T07:43:39.257Z,99.90
2022-08-10T07:46:13.713Z,99.90
2022-08-10T07:48:47.730Z,99.90
2022-08-10T07:51:19.149Z,99.90
2022-08-10T07:53:54.248Z,99.90
2022-08-10T07:56:48.018Z,99.90
2022-08-10T07:59:23.664Z,99.90
2022-08-10T08:01:55.922Z,99.90
2022-08-10T08:04:25.612Z,99.90
2022-08-10T08:06:55.178Z,99.90
2022-08-10T08:09:24.736Z,99.90
2022-08-10T08:11:54.636Z,99.90
2022-08-10T08:14:24.085Z,99.90
2022-08-10T08:16:55.631Z,99.90
2022-08-10T08:19:28.428Z,99.90
2022-08-10T08:24:05.337Z,99.90
2022-08-10T08:24:57.766Z,99.90
2022-08-10T08:27:27.961Z,99.90
2022-08-10T08:29:57.162Z,99.90
2022-08-10T08:32:29.408Z,99.90
2022-08-10T08:35:03.975Z,99.90
2022-08-10T08:38:32.360Z,99.90
2022-08-10T08:40:33.435Z,99.90
2022-08-10T08:43:44.575Z,99.90
2022-08-10T08:48:02.092Z,99.90
2022-08-10T08:50:29.260Z,99.90
2022-08-10T08:56:33.629Z,99.90
2022-08-10T08:59:43.241Z,99.90
2022-08-10T09:02:54.348Z,99.90
2022-08-10T09:05:58.442Z,99.90
2022-08-10T09:09:09.321Z,99.90
2022-08-10T09:12:22.714Z,99.90
2022-08-10T09:15:41.128Z,99.90
2022-08-10T09:18:21.416Z,99.90
2022-08-10T09:21:43.391Z,99.90
2022-08-10T09:24:54.546Z,99.90
2022-08-10T09:27:39.700Z,99.90
2022-08-10T09:30:16.584Z,99.90
2022-08-10T09:36:13.258Z,99.90
2022-08-10T09:36:32.376Z,99.90
2022-08-10T09:40:58.320Z,99.90
2022-08-10T09:42:28.735Z,99.90
2022-08-10T09:45:09.939Z,99.90
2022-08-10T09:48:05.967Z,99.90
2022-08-10T09:55:21.909Z,99.90
2022-08-10T09:58:31.410Z,99.90
2022-08-10T10:01:58.486Z,99.90
2022-08-10T10:07:11.149Z,99.90
2022-08-10T10:12:54.386Z,99.90
2022-08-10T10:15:52.756Z,99.90
2022-08-10T10:19:12.456Z,99.90
2022-08-10T10:27:21.473Z,99.90
2022-08-10T10:33:15.516Z,99.90
2022-08-10T10:35:54.031Z,99.90
2022-08-10T10:38:34.694Z,99.90
2022-08-10T10:41:56.136Z,99.90
2022-08-10T10:51:15.403Z,99.90
2022-08-10T10:54:29.071Z,99.90
2022-08-10T10:57:15.341Z,95.10
2022-08-10T11:00:13.204Z,96.00
2022-08-10T11:03:14.479Z,93.20
2022-08-10T11:06:42.374Z,99.90
2022-08-10T11:10:03.239Z,88.50
2022-08-10T11:12:50.044Z,90.80
2022-08-10T11:15:47.550Z,99.90
2022-08-10T11:18:33.674Z,89.10
2022-08-10T11:21:24.554Z,88.60
2022-08-10T11:24:48.498Z,99.90
2022-08-10T11:28:01.160Z,84.50
2022-08-10T11:30:47.754Z,97.80
2022-08-10T11:34:48.626Z,79.60
2022-08-10T11:37:24.733Z,97.90
2022-08-10T11:40:15.808Z,75.20
2022-08-10T11:42:51.295Z,74.60
2022-08-10T11:45:35.118Z,74.40
2022-08-10T11:49:13.309Z,71.50
2022-08-10T11:54:43.935Z,93.80
2022-08-10T11:57:12.876Z,65.90
2022-08-10T12:02:59.877Z,68.50
2022-08-10T12:05:48.323Z,66.60
2022-08-10T12:10:03.076Z,67.90
2022-08-10T12:11:25.561Z,63.80
2022-08-10T12:14:26.170Z,88.70
2022-08-10T12:17:07.861Z,64.00
2022-08-10T12:20:01.387Z,62.00
2022-08-10T12:25:55.724Z,86.60
2022-08-10T12:29:03.686Z,83.90
2022-08-10T12:31:59.856Z,88.00
2022-08-10T12:35:03.976Z,87.20
2022-08-10T12:40:49.012Z,86.70
2022-08-10T12:44:05.488Z,55.80
2022-08-10T12:47:47.685Z,86.00
2022-08-10T12:50:50.029Z,58.00
2022-08-10T12:53:48.454Z,55.80
2022-08-10T12:56:31.557Z,56.40
2022-08-10T12:59:01.765Z,79.30
2022-08-10T13:02:07.808Z,58.30
2022-08-10T13:04:34.869Z,75.30
2022-08-10T13:09:34.629Z,81.20
2022-08-10T13:12:36.393Z,77.30
2022-08-10T13:15:49.870Z,83.30
2022-08-10T13:18:39.088Z,73.90
2022-08-10T13:21:20.659Z,73.20
2022-08-10T13:24:16.625Z,52.10
2022-08-10T13:27:25.009Z,76.80
2022-08-10T13:30:03.462Z,76.60
2022-08-10T13:32:34.622Z,83.10
2022-08-10T13:35:15.195Z,51.80
2022-08-10T13:37:46.910Z,71.40
2022-08-10T13:40:19.650Z,49.70
2022-08-10T13:42:51.379Z,72.20
2022-08-10T13:45:31.019Z,50.10
2022-08-10T13:48:27.091Z,77.70
2022-08-10T13:50:58.798Z,48.50
2022-08-10T13:53:32.136Z,70.50
2022-08-10T13:56:11.214Z,71.00
2022-08-10T13:58:41.928Z,71.40
2022-08-10T14:01:20.546Z,70.00
2022-08-10T14:03:52.608Z,49.10
2022-08-10T14:06:29.850Z,74.00
2022-08-10T14:09:11.525Z,47.90
2022-08-10T14:11:42.668Z,50.50
2022-08-10T14:14:21.935Z,49.60
2022-08-10T14:19:51.526Z,47.10
2022-08-10T14:25:14.227Z,66.70
2022-08-10T14:28:03.268Z,65.40
2022-08-10T14:30:33.153Z,46.90
2022-08-10T14:33:04.495Z,66.40
2022-08-10T14:36:20.491Z,47.10
2022-08-10T14:38:36.160Z,44.80
2022-08-10T14:42:01.406Z,66.90
2022-08-10T14:44:10.867Z,68.40
2022-08-10T14:46:51.575Z,45.70
2022-08-10T14:49:25.705Z,44.40
2022-08-10T14:52:03.831Z,70.10
2022-08-10T14:54:35.107Z,68.60
2022-08-10T14:57:11.991Z,66.70
2022-08-10T15:00:22.866Z,69.20
2022-08-10T15:03:01.958Z,45.00
2022-08-10T15:06:17.005Z,70.40
2022-08-10T15:12:13.613Z,64.90
2022-08-10T15:14:41.827Z,45.40
2022-08-10T15:17:02.436Z,72.50
2022-08-10T15:20:03.815Z,45.30
2022-08-10T15:22:37.968Z,46.50
2022-08-10T15:25:17.821Z,68.00
2022-08-10T15:28:05.053Z,67.70
2022-08-10T15:30:44.793Z,46.00
2022-08-10T15:33:59.447Z,45.90
2022-08-10T15:37:01.807Z,69.00
2022-08-10T15:40:24.617Z,44.80
2022-08-10T15:42:35.637Z,45.80
2022-08-10T15:45:05.499Z,45.00
2022-08-10T15:47:45.097Z,44.10
2022-08-10T15:50:31.826Z,46.70
2022-08-10T15:53:49.814Z,45.20
2022-08-10T15:56:31.356Z,44.80
2022-08-10T15:59:12.895Z,68.20
2022-08-10T16:02:14.398Z,67.30
2022-08-10T16:06:00.295Z,44.90
2022-08-10T16:08:33.871Z,44.80
2022-08-10T16:11:05.354Z,44.60
2022-08-10T16:13:50.209Z,68.90
2022-08-10T16:16:40.704Z,45.90
2022-08-10T16:19:34.843Z,46.20
2022-08-10T16:22:34.007Z,46.00
2022-08-10T16:25:48.226Z,46.20
2022-08-10T16:28:23.636Z,67.10
2022-08-10T16:30:59.434Z,67.20
2022-08-10T16:33:53.081Z,69.90
2022-08-10T16:36:29.149Z,76.00
2022-08-10T16:38:59.026Z,70.90
2022-08-10T16:42:03.714Z,69.20
2022-08-10T16:44:20.135Z,46.10
2022-08-10T16:46:48.993Z,67.40
2022-08-10T16:49:18.789Z,46.80
2022-08-10T16:51:49.661Z,70.70
2022-08-10T16:54:27.045Z,70.40
2022-08-10T16:57:02.604Z,47.70
2022-08-10T16:59:37.608Z,71.10
2022-08-10T17:02:07.927Z,47.90
2022-08-10T17:07:14.220Z,48.60
2022-08-10T17:09:50.924Z,73.10
2022-08-10T17:12:30.425Z,48.80
2022-08-10T17:17:47.751Z,49.10
2022-08-10T17:20:40.045Z,50.20
2022-08-10T17:25:48.682Z,50.50
2022-08-10T17:31:53.655Z,77.50
2022-08-10T17:34:33.235Z,77.60
2022-08-10T17:37:06.863Z,78.60
2022-08-10T17:39:45.876Z,51.20
2022-08-10T17:44:53.605Z,76.40
2022-08-10T17:47:27.034Z,51.50
2022-08-10T17:49:58.326Z,52.70
2022-08-10T17:52:31.923Z,52.90
2022-08-10T17:55:10.239Z,53.30
2022-08-10T17:57:45.879Z,79.90
2022-08-10T18:02:48.908Z,53.90
2022-08-10T18:07:53.348Z,82.50
2022-08-10T18:10:23.800Z,54.20
2022-08-10T18:12:56.103Z,54.30
2022-08-10T18:15:27.811Z,54.30
2022-08-10T18:18:04.654Z,53.80
2022-08-10T18:20:38.388Z,54.80
2022-08-10T18:23:13.928Z,54.80
2022-08-10T18:25:45.613Z,54.80
2022-08-10T18:28:34.867Z,55.30
2022-08-10T18:31:04.796Z,55.50
2022-08-10T18:33:42.200Z,56.40
2022-08-10T18:36:12.265Z,57.10
2022-08-10T18:39:16.109Z,57.60
2022-08-10T18:45:08.569Z,84.70
2022-08-10T18:48:00.088Z,58.40
2022-08-10T18:50:53.113Z,59.20
2022-08-10T18:53:50.729Z,60.90
2022-08-10T18:56:21.446Z,86.50
2022-08-10T19:00:03.843Z,59.70
2022-08-10T19:03:27.065Z,88.00
2022-08-10T19:09:45.600Z,61.80
2022-08-10T19:12:41.742Z,60.40
2022-08-10T19:18:33.555Z,61.70
2022-08-10T19:21:43.055Z,62.60
2022-08-10T19:24:36.162Z,90.30
2022-08-10T19:27:57.804Z,63.00
2022-08-10T19:31:19.057Z,63.30
2022-08-10T19:34:29.280Z,63.80
2022-08-10T19:44:00.735Z,63.80
2022-08-10T19:49:28.089Z,65.60
2022-08-10T19:52:11.375Z,65.00
2022-08-10T19:55:17.568Z,91.30
2022-08-10T19:58:20.777Z,66.40
2022-08-10T20:01:07.402Z,65.90
2022-08-10T20:03:50.932Z,93.30
2022-08-10T20:06:44.327Z,67.80
2022-08-10T20:09:47.369Z,67.90
2022-08-10T20:12:48.476Z,68.00
2022-08-10T20:15:41.516Z,68.70
2022-08-10T20:18:41.408Z,74.40
2022-08-10T20:21:29.550Z,70.90
2022-08-10T20:24:08.941Z,73.10
2022-08-10T20:26:52.403Z,75.20
2022-08-10T20:29:58.204Z,73.50
2022-08-10T20:36:12.498Z,75.20
2022-08-10T20:41:50.674Z,78.90
2022-08-10T20:44:59.369Z,75.50
2022-08-10T20:47:53.820Z,78.30
2022-08-10T20:50:51.480Z,78.80
2022-08-10T20:59:23.489Z,76.20
2022-08-10T21:02:46.497Z,98.70
2022-08-10T21:06:04.870Z,78.50
2022-08-10T21:09:22.854Z,80.70
2022-08-10T21:12:34.164Z,99.90
2022-08-10T21:15:32.341Z,80.90
2022-08-10T21:18:47.478Z,99.90
2022-08-10T21:24:25.648Z,93.40
2022-08-10T21:30:11.758Z,92.00
2022-08-10T21:33:49.121Z,91.40
2022-08-10T21:36:49.485Z,91.60
2022-08-10T21:43:22.525Z,95.20
2022-08-10T21:46:58.828Z,92.50
2022-08-10T21:53:08.076Z,95.40
2022-08-10T21:56:27.812Z,94.80
2022-08-10T21:59:47.865Z,91.60
2022-08-10T22:02:50.136Z,91.90
2022-08-10T22:05:49.718Z,93.60
2022-08-10T22:09:02.463Z,93.00
2022-08-10T22:11:53.701Z,92.80
2022-08-10T22:14:56.098Z,92.30
2022-08-10T22:18:04.861Z,92.20
2022-08-10T22:20:56.653Z,91.40
2022-08-10T22:27:47.563Z,91.30
2022-08-10T22:37:14.413Z,98.20
2022-08-10T22:40:25.257Z,99.90
2022-08-10T22:43:14.738Z,96.20
2022-08-10T22:46:36.385Z,99.60
2022-08-10T22:55:15.977Z,98.30
2022-08-10T22:58:08.500Z,96.70
2022-08-10T23:00:37.476Z,95.50
2022-08-10T23:03:16.733Z,94.90
2022-08-10T23:08:55.923Z,94.70
2022-08-10T23:11:44.362Z,97.00
2022-08-10T23:14:15.041Z,96.90
2022-08-10T23:17:07.101Z,94.50
2022-08-10T23:19:57.355Z,95.90
2022-08-10T23:30:38.020Z,97.00
2022-08-10T23:33:13.309Z,98.70
2022-08-10T23:36:31.131Z,98.70
2022-08-10T23:38:41.352Z,98.00
2022-08-10T23:41:11.263Z,98.30
2022-08-10T23:46:39.884Z,98.90
2022-08-10T23:49:12.445Z,97.60
2022-08-10T23:51:55.881Z,99.10
2022-08-10T23:54:26.441Z,97.80
2022-08-10T23:57:00.857Z,98.60
2022-08-10T23:59:31.871Z,98.00
